UGSB/BUS METAR and TAF weather

Enter ICAO airport designator
Station Type Date Time Source
UGSB METAR 2022/07/03 15:00 UTC NOAA

UGSB 031500Z 24007KT 9999 FEW033 23/18 Q1016 NOSIG


Station Type Date Time Source
UGSB Decoded METAR 2022/07/03 15:00 UTC NOAA

Station name not available
Jul 03, 2022 - 11:00 AM EDT / 2022.07.03 1500 UTC
Wind: from the WSW (240 degrees) at 8 MPH (7 KT):0
Visibility: greater than 7 mile(s):0
Sky conditions: mostly clear
Temperature: 73 F (23 C)
Dew Point: 64 F (18 C)
Relative Humidity: 73%
Pressure (altimeter): 30.00 in. Hg (1016 hPa)
ob: UGSB 031500Z 24007KT 9999 FEW033 23/18 Q1016 NOSIG
cycle: 15

Station Type Date Time Source
UGSB TAF 2022/07/03 12:12 UTC NOAA

TAF UGSB 031100Z 0312/0412 24010KT 9999 FEW035 TX25/0412Z TN19/0402Z PROB30
TEMPO 0314/0319 TSRA SCT023CB
BECMG 0318/0321 13010KT
BECMG 0405/0406 27007KT

Example: see airport list